Ana Sayfa
METAR-TAF:

METAR-TAF

Havaalanları :

Zihuatanejo, Meksika

Enlem: 17-36N, Boylam: 101-28W, yükseklik: 6 m

Güncel hava durumu gözlemi

Rapor saat 01:50 UTC de 43 dakika önce yapıldı.
Rüzgar kuzeydoğudan 3 kt
Sıcaklık 27°C
Nem 79%
Basınç 1013 hPa
Görüş mesafesi: 11.3 km
2000 ft yükseklikte az bulutlu

METAR: MMZH 160150Z 05003KT 7SM FEW020 27/23 A2990 RMK 8/500 HZY

Saat: 20:33 (02:33 UTC)

Tahmin

Rapor saat 23:55 UTC de 2 saat ve 38 dakika önce yapıldı.
Ayın 16'si saat 00 UTC'den ayın 16'si saat 18 UTC'ye kadar geçerli Tahmin
Rüzgar batı/güneybatıdan 5 kt
Görüş mesafesi: 10 km
Açık gökyüzü
Ayın 16'si saat 0600 UTC'den
Rüzgar kuzeybatıdan 5 kt
Görüş mesafesi: 10 km
Açık gökyüzü
Ayın 16'si saat 1800 UTC'den
Rüzgar batı/güneybatıdan 10 kt
Görüş mesafesi: 10 km
2000 ft yükseklikte parçalı bulutlu

TAF: MMZH 152355Z 1600/1618 24005KT P6SM SKC FM160600 32005KT P6SM SKC FM161800 24010KT P6SM SCT020

4.000'den fazla havaalanı için hava durumu gözlemleri ve tahminleri (METAR ve TAF raporları).

Kullanılabilir istasyonlar harita üzerinde sarı ve kırmızı noktalarla gösterilir.

İstasyonun adını görmek için fareyi noktanın üzerinde gezdirin.

Sonrasında hava gözlem ve tahminlerini görmek için tıklayın.

Haritayı değiştirmek için: yaklaştırmak için siyah artı işaretli yeşil düğmeye ve uzaklaştırmak için de eksi işaretli düğmeye hızla tıklayın; bitişik haritalar için yeşil okları kullanın.


METAR-TAF: